Tyrone, Missouri
Current Conditions -  °F | °C
As of 5:33 PM on Thursday 18 Dec 2014 (Local Time) from KUNO Reporting Station
Overcast Overcast  
Wind Chill: 37°   Ceiling: 900
Heat Index: 37°   Visibility: 9mi
Dew Point: 33°   Wind: 0mph
Humidity: 86%   Direction: NA
Pressure: 30.18"   Gusts: NA
Location:  37.3091°N, 91.9516°W
Report Text: KUNO 182333Z AUTO 00000KT 9SM OVC009 03/01 A3018 RMK AO2 T00280006
Loading
Personal Weather Stations






























Interactive Weather Map New forecast layout! Learn more

10-Day Weather Forecast

Advertisements
Track Severe Weather on mobile